Time;durP1;ratioP1;P1;durP2;ratioP2;P2;SDS_P1;SDS_P2;PMS_P1;PMS_P2;Temp;Humidity;BMP_temperature;BMP_pressure;BME280_temperature;BME280_humidity;BME280_pressure;Samples;Min_cycle;Max_cycle;Signal;HPM_P1;HPM_P2
2023/06/27 00:01:40;;;;;;;11.80;3.00;;;24.20;50.50;;;;;;5048426;28;20513;-79
2023/06/27 00:04:10;;;;;;;7.83;2.83;;;24.20;50.80;;;;;;5055943;28;20425;-78
2023/06/27 00:06:41;;;;;;;11.63;2.80;;;24.30;50.60;;;;;;5060172;28;20489;-78
2023/06/27 00:09:11;;;;;;;6.57;2.43;;;24.30;50.30;;;;;;5051753;28;20454;-79
2023/06/27 00:11:39;;;;;;;10.47;2.70;;;24.30;50.60;;;;;;5053023;28;20508;-79
2023/06/27 00:14:09;;;;;;;10.87;2.60;;;24.20;50.30;;;;;;5055009;28;20489;-79
2023/06/27 00:16:40;;;;;;;6.17;2.70;;;24.20;50.60;;;;;;5055136;28;20470;-80
2023/06/27 00:19:10;;;;;;;9.60;2.40;;;24.20;50.40;;;;;;5054256;28;20447;-80
2023/06/27 00:21:38;;;;;;;7.07;2.83;;;24.20;50.60;;;;;;5055196;28;20450;-79
2023/06/27 00:24:07;;;;;;;7.60;2.50;;;24.10;50.40;;;;;;5055719;28;20471;-80
2023/06/27 00:26:36;;;;;;;10.33;2.30;;;24.10;50.50;;;;;;5054488;28;20462;-81
2023/06/27 00:29:04;;;;;;;8.87;2.87;;;24.10;50.40;;;;;;5052414;28;20885;-80
2023/06/27 00:31:32;;;;;;;6.23;2.67;;;24.00;50.40;;;;;;5054317;28;20450;-78
2023/06/27 00:34:01;;;;;;;10.90;2.60;;;23.90;50.50;;;;;;5053028;28;20520;-79
2023/06/27 00:36:31;;;;;;;6.10;2.50;;;23.90;50.40;;;;;;5053081;28;20504;-78
2023/06/27 00:38:59;;;;;;;11.10;3.00;;;24.00;50.40;;;;;;5053642;28;20508;-78
2023/06/27 00:41:27;;;;;;;6.70;2.20;;;24.00;50.40;;;;;;5060436;28;20447;-80
2023/06/27 00:43:57;;;;;;;6.10;2.53;;;23.90;50.10;;;;;;5049312;28;21010;-78
2023/06/27 00:46:30;;;;;;;7.13;2.47;;;23.90;50.30;;;;;;5053434;28;20446;-78
2023/06/27 00:48:58;;;;;;;9.20;2.87;;;23.90;50.40;;;;;;5060383;28;20446;-79
2023/06/27 00:51:26;;;;;;;10.13;2.90;;;24.00;50.30;;;;;;5052664;28;20521;-79
2023/06/27 00:53:55;;;;;;;4.83;2.40;;;23.90;50.00;;;;;;5052743;28;20438;-80
2023/06/27 00:56:23;;;;;;;8.83;2.40;;;23.90;50.20;;;;;;5053891;28;20501;-80
2023/06/27 00:58:51;;;;;;;10.53;2.70;;;23.80;50.30;;;;;;5052759;28;20479;-80
2023/06/27 01:01:19;;;;;;;8.13;2.57;;;23.80;50.30;;;;;;5050061;28;20467;-80
2023/06/27 01:03:48;;;;;;;8.80;2.37;;;23.80;50.30;;;;;;5053421;28;20443;-79
2023/06/27 01:06:18;;;;;;;11.07;3.17;;;23.80;50.00;;;;;;5053621;28;20428;-80
2023/06/27 01:08:49;;;;;;;7.20;2.80;;;23.80;50.10;;;;;;5053807;28;20430;-80
2023/06/27 01:11:20;;;;;;;9.20;2.50;;;23.70;50.10;;;;;;5055814;28;20447;-80
2023/06/27 01:13:50;;;;;;;6.60;2.33;;;23.70;50.30;;;;;;5057851;28;20475;-80
2023/06/27 01:16:19;;;;;;;8.20;2.80;;;23.70;49.90;;;;;;5043868;28;20450;-80
2023/06/27 01:18:47;;;;;;;9.10;2.50;;;23.70;50.00;;;;;;5053112;28;20462;-80
2023/06/27 01:21:17;;;;;;;6.47;2.33;;;23.70;50.20;;;;;;5052037;28;20454;-80
2023/06/27 01:23:50;;;;;;;7.47;2.50;;;23.70;50.10;;;;;;5053411;28;20450;-80
2023/06/27 01:26:18;;;;;;;5.53;2.10;;;23.60;50.20;;;;;;5053112;28;20447;-80
2023/06/27 01:28:47;;;;;;;7.67;2.40;;;23.60;50.50;;;;;;5053109;28;20436;-80
2023/06/27 01:31:19;;;;;;;6.97;2.83;;;23.60;50.40;;;;;;5050107;28;20442;-80
2023/06/27 01:33:49;;;;;;;6.70;2.50;;;23.60;50.40;;;;;;5056150;28;20446;-80
2023/06/27 01:36:19;;;;;;;6.23;2.67;;;23.60;50.40;;;;;;5053203;28;20470;-80
2023/06/27 01:38:59;;;;;;;8.10;2.30;;;23.60;50.30;;;;;;5052432;28;20997;-80
2023/06/27 01:41:27;;;;;;;5.97;2.77;;;23.60;50.30;;;;;;5053145;28;21009;-80
2023/06/27 01:43:55;;;;;;;9.80;2.90;;;23.60;50.40;;;;;;5051957;28;20987;-80
2023/06/27 01:46:24;;;;;;;4.87;2.37;;;23.60;50.20;;;;;;5052967;28;20815;-79
2023/06/27 01:48:52;;;;;;;4.70;2.30;;;23.50;50.10;;;;;;5051278;28;20447;-80
2023/06/27 01:51:20;;;;;;;5.93;2.50;;;23.40;49.90;;;;;;5054419;28;20508;-78
2023/06/27 01:53:50;;;;;;;8.80;2.50;;;23.40;50.10;;;;;;5051265;28;20446;-78
2023/06/27 01:56:18;;;;;;;5.40;2.90;;;23.40;49.80;;;;;;5054808;28;20421;-78
2023/06/27 01:58:47;;;;;;;5.77;2.23;;;23.30;49.80;;;;;;5055573;28;20516;-78
2023/06/27 02:01:15;;;;;;;6.90;2.70;;;23.40;49.40;;;;;;5051183;28;20492;-78
2023/06/27 02:03:43;;;;;;;3.63;2.77;;;23.30;49.30;;;;;;5051020;28;20434;-78
2023/06/27 02:06:12;;;;;;;6.80;2.87;;;23.30;49.40;;;;;;5048734;28;20451;-78
2023/06/27 02:08:40;;;;;;;5.20;2.50;;;23.30;49.40;;;;;;5051180;28;20512;-78
2023/06/27 02:11:10;;;;;;;4.07;2.07;;;23.30;49.20;;;;;;5051525;28;20446;-78
2023/06/27 02:13:39;;;;;;;8.80;2.47;;;23.30;49.20;;;;;;5055751;28;20446;-79
2023/06/27 02:16:07;;;;;;;6.27;2.83;;;23.30;49.40;;;;;;5050299;28;20442;-79
2023/06/27 02:18:35;;;;;;;4.50;2.17;;;23.20;48.80;;;;;;5055886;28;20493;-79
2023/06/27 02:21:03;;;;;;;3.63;2.27;;;23.10;48.90;;;;;;5051154;28;20446;-78
2023/06/27 02:23:32;;;;;;;12.07;2.47;;;23.10;49.10;;;;;;5052089;28;20458;-79
2023/06/27 02:26:00;;;;;;;6.47;1.97;;;23.20;49.00;;;;;;5052121;28;20490;-79
2023/06/27 02:28:29;;;;;;;4.50;2.00;;;23.20;48.90;;;;;;5058101;28;20466;-79
2023/06/27 02:30:58;;;;;;;5.53;2.23;;;23.10;48.90;;;;;;5051542;28;20447;-80
2023/06/27 02:33:26;;;;;;;5.80;2.20;;;23.10;49.00;;;;;;5052315;28;20458;-80
2023/06/27 02:35:54;;;;;;;5.10;2.33;;;23.10;49.00;;;;;;5052464;28;20486;-80
2023/06/27 02:38:23;;;;;;;4.73;2.60;;;23.10;49.00;;;;;;5053009;28;20524;-80
2023/06/27 02:40:52;;;;;;;8.47;2.63;;;23.10;49.10;;;;;;5049669;28;20450;-78
2023/06/27 02:43:20;;;;;;;6.27;2.43;;;23.00;49.20;;;;;;5051745;28;20503;-79
2023/06/27 02:45:50;;;;;;;6.80;2.87;;;23.10;49.60;;;;;;5057723;28;20542;-79
2023/06/27 02:48:18;;;;;;;8.57;2.80;;;23.00;49.10;;;;;;5059207;28;20446;-79
2023/06/27 02:50:50;;;;;;;4.70;3.10;;;23.00;49.40;;;;;;5056675;28;20467;-79
2023/06/27 02:53:18;;;;;;;6.10;3.03;;;23.00;49.20;;;;;;5059954;28;20440;-78
2023/06/27 02:55:46;;;;;;;6.63;3.30;;;23.00;49.50;;;;;;5051079;28;20549;-78
2023/06/27 02:58:14;;;;;;;7.07;2.87;;;23.00;49.40;;;;;;5052002;28;20506;-78
2023/06/27 03:00:42;;;;;;;4.00;2.73;;;23.00;49.50;;;;;;5053534;28;20496;-78
2023/06/27 03:03:11;;;;;;;7.03;3.50;;;22.90;49.40;;;;;;5050711;28;20434;-78
2023/06/27 03:05:40;;;;;;;4.97;3.33;;;22.90;49.40;;;;;;5050695;28;20516;-77
2023/06/27 03:08:09;;;;;;;5.77;3.23;;;22.90;49.50;;;;;;5058723;28;20442;-79
2023/06/27 03:10:37;;;;;;;5.93;3.10;;;22.90;49.40;;;;;;5071763;28;20441;-82
2023/06/27 03:13:05;;;;;;;8.43;3.80;;;22.90;49.60;;;;;;5053832;28;20943;-78
2023/06/27 03:15:33;;;;;;;6.03;2.90;;;22.90;49.40;;;;;;5051389;28;20529;-79
2023/06/27 03:18:01;;;;;;;8.23;2.43;;;22.90;49.60;;;;;;5048274;28;20451;-79
2023/06/27 03:20:31;;;;;;;4.73;3.00;;;22.90;49.70;;;;;;5050631;28;20492;-79
2023/06/27 03:22:59;;;;;;;4.93;2.97;;;22.90;49.40;;;;;;5050897;28;20493;-79
2023/06/27 03:25:27;;;;;;;3.87;2.87;;;22.80;49.80;;;;;;5046022;28;20545;-78
2023/06/27 03:27:55;;;;;;;4.27;2.60;;;22.80;49.80;;;;;;5060528;28;21013;-79
2023/06/27 03:30:23;;;;;;;5.40;2.83;;;22.90;49.90;;;;;;5054273;28;20465;-79
2023/06/27 03:32:51;;;;;;;6.90;4.80;;;22.90;49.80;;;;;;5062095;28;20795;-80
2023/06/27 03:35:19;;;;;;;8.40;5.30;;;22.90;49.70;;;;;;5048673;28;20565;-79
2023/06/27 03:37:50;;;;;;;7.97;4.90;;;22.80;50.00;;;;;;5053765;28;20446;-80
2023/06/27 03:40:18;;;;;;;12.77;5.93;;;22.80;49.80;;;;;;5053777;28;20497;-79
2023/06/27 03:42:47;;;;;;;8.53;6.67;;;22.80;50.00;;;;;;5053746;28;20629;-79
2023/06/27 03:45:15;;;;;;;13.93;8.57;;;22.80;50.00;;;;;;5053753;28;20555;-79
2023/06/27 03:47:43;;;;;;;9.87;4.57;;;22.80;50.10;;;;;;5053809;28;20470;-79
2023/06/27 03:50:11;;;;;;;9.50;5.20;;;22.90;50.10;;;;;;5060428;28;20496;-78
2023/06/27 03:52:39;;;;;;;12.50;6.30;;;22.80;50.00;;;;;;5049636;28;20542;-78
2023/06/27 03:55:09;;;;;;;5.73;3.87;;;22.80;49.90;;;;;;5053916;28;20470;-78
2023/06/27 03:57:37;;;;;;;13.27;6.03;;;22.70;49.80;;;;;;5053863;28;20512;-78
2023/06/27 04:00:08;;;;;;;5.93;4.47;;;22.80;50.20;;;;;;5053959;28;20556;-78
2023/06/27 04:02:38;;;;;;;6.57;4.17;;;22.80;50.10;;;;;;5060427;28;20476;-79
2023/06/27 04:05:07;;;;;;;6.80;4.30;;;22.80;49.90;;;;;;5053647;28;20584;-79
2023/06/27 04:07:36;;;;;;;8.67;4.27;;;22.80;50.10;;;;;;5051778;28;20533;-79
2023/06/27 04:10:04;;;;;;;7.30;4.40;;;22.80;50.10;;;;;;5050963;28;20438;-78
2023/06/27 04:12:33;;;;;;;6.00;3.20;;;22.80;50.10;;;;;;5053459;28;20530;-78
2023/06/27 04:15:02;;;;;;;5.80;3.47;;;22.70;50.00;;;;;;5053484;28;20501;-79
2023/06/27 04:17:30;;;;;;;5.10;3.30;;;22.70;50.50;;;;;;5053912;28;20497;-78
2023/06/27 04:19:59;;;;;;;3.10;2.80;;;22.70;50.20;;;;;;5053038;28;20470;-79
2023/06/27 04:22:27;;;;;;;5.37;2.83;;;22.70;50.20;;;;;;5053412;28;20497;-78
2023/06/27 04:24:55;;;;;;;5.27;2.80;;;22.70;49.90;;;;;;5043494;28;20562;-79
2023/06/27 04:27:23;;;;;;;4.97;2.73;;;22.70;50.00;;;;;;5053654;28;20478;-78
2023/06/27 04:29:52;;;;;;;6.53;3.10;;;22.70;50.00;;;;;;5053823;28;20439;-78
2023/06/27 04:32:20;;;;;;;4.20;3.53;;;22.80;50.40;;;;;;5053954;28;20537;-80
2023/06/27 04:34:48;;;;;;;6.40;3.27;;;22.80;50.20;;;;;;5053654;28;20558;-79
2023/06/27 04:37:18;;;;;;;3.33;2.90;;;22.80;50.10;;;;;;5053456;28;20530;-78
2023/06/27 04:39:45;;;;;;;5.17;2.97;;;22.70;50.10;;;;;;5053665;28;20467;-79
2023/06/27 04:42:14;;;;;;;4.00;2.80;;;22.80;50.50;;;;;;5051478;28;20508;-79
2023/06/27 04:44:42;;;;;;;5.40;2.80;;;22.80;50.30;;;;;;5046466;28;20462;-79
2023/06/27 04:47:11;;;;;;;6.20;2.70;;;22.90;50.40;;;;;;5054391;28;20541;-78
2023/06/27 04:49:39;;;;;;;6.67;2.90;;;22.80;50.20;;;;;;5060884;28;20492;-79
2023/06/27 04:52:07;;;;;;;6.10;2.73;;;22.80;50.40;;;;;;5053137;28;20471;-79
2023/06/27 04:54:35;;;;;;;5.93;3.13;;;22.80;50.30;;;;;;5053082;28;20494;-79
2023/06/27 04:57:04;;;;;;;5.20;3.03;;;22.80;50.60;;;;;;5053271;28;20466;-79
2023/06/27 04:59:39;;;;;;;6.63;3.20;;;23.00;50.60;;;;;;5044338;28;20471;-79
2023/06/27 05:02:08;;;;;;;6.03;2.90;;;22.90;50.40;;;;;;5059648;28;20556;-78
2023/06/27 05:04:37;;;;;;;4.10;2.50;;;22.90;50.40;;;;;;5052546;28;20546;-78
2023/06/27 05:07:05;;;;;;;7.93;3.07;;;22.90;50.60;;;;;;5052508;28;20449;-79
2023/06/27 05:09:33;;;;;;;6.30;3.13;;;23.00;50.60;;;;;;5052151;28;20434;-78
2023/06/27 05:12:01;;;;;;;4.50;2.77;;;23.00;50.40;;;;;;5060022;28;20455;-79
2023/06/27 05:14:29;;;;;;;5.00;2.73;;;23.00;50.50;;;;;;5052634;28;20459;-78
2023/06/27 05:16:57;;;;;;;3.30;2.50;;;23.00;50.70;;;;;;5057341;28;20452;-80
2023/06/27 05:19:25;;;;;;;4.57;3.00;;;23.00;50.80;;;;;;5059436;28;20959;-78
2023/06/27 05:21:54;;;;;;;10.30;2.60;;;23.00;50.70;;;;;;5057055;28;20496;-78
2023/06/27 05:24:22;;;;;;;8.50;3.03;;;23.00;51.00;;;;;;5053872;28;20545;-78
2023/06/27 05:26:50;;;;;;;8.60;3.07;;;23.00;51.00;;;;;;5052146;28;20466;-78
2023/06/27 05:29:18;;;;;;;4.17;2.53;;;23.00;51.00;;;;;;5052146;28;20484;-78
2023/06/27 05:31:45;;;;;;;9.00;3.13;;;23.10;51.20;;;;;;5046105;28;20470;-79
2023/06/27 05:34:14;;;;;;;8.17;2.87;;;23.10;51.10;;;;;;5045227;28;20517;-80
2023/06/27 05:36:41;;;;;;;7.93;3.10;;;23.20;51.30;;;;;;5050510;28;20431;-78
2023/06/27 05:39:10;;;;;;;5.60;3.20;;;23.20;51.20;;;;;;5051867;28;20534;-79
2023/06/27 05:41:38;;;;;;;6.90;2.83;;;23.30;51.20;;;;;;5058991;28;20447;-79
2023/06/27 05:44:07;;;;;;;5.57;2.87;;;23.30;51.40;;;;;;5060658;28;20473;-79
2023/06/27 05:46:38;;;;;;;5.57;2.60;;;23.40;51.40;;;;;;5059307;28;20456;-79
2023/06/27 05:49:07;;;;;;;3.10;2.47;;;23.40;51.40;;;;;;5051945;28;20465;-79
2023/06/27 05:51:36;;;;;;;8.80;3.17;;;23.50;51.30;;;;;;5048499;28;20446;-78
2023/06/27 05:54:04;;;;;;;3.20;2.80;;;23.50;51.10;;;;;;5047527;28;20462;-78
2023/06/27 05:56:33;;;;;;;6.03;2.93;;;23.50;51.40;;;;;;5045119;28;20520;-78
2023/06/27 05:59:01;;;;;;;2.83;2.50;;;23.50;51.40;;;;;;5033674;28;20485;-79
2023/06/27 06:01:29;;;;;;;3.50;2.70;;;23.60;52.30;;;;;;5040495;28;20478;-78
2023/06/27 06:03:57;;;;;;;6.60;2.80;;;23.70;51.50;;;;;;5048100;28;20515;-78
2023/06/27 06:06:25;;;;;;;7.13;2.60;;;23.70;51.40;;;;;;5051901;28;20445;-79
2023/06/27 06:08:53;;;;;;;5.00;2.53;;;23.80;51.50;;;;;;5057031;28;20474;-79
2023/06/27 06:11:21;;;;;;;5.43;2.70;;;23.80;51.40;;;;;;5049094;28;20450;-79
2023/06/27 06:13:50;;;;;;;3.67;2.37;;;23.80;51.50;;;;;;5059744;28;20438;-80
2023/06/27 06:16:19;;;;;;;6.87;2.40;;;23.80;51.60;;;;;;5051590;28;20452;-79
2023/06/27 06:18:47;;;;;;;5.43;2.40;;;23.90;51.70;;;;;;5052066;28;20529;-79
2023/06/27 06:21:15;;;;;;;5.30;2.60;;;23.90;51.40;;;;;;5051552;28;20505;-80
2023/06/27 06:23:43;;;;;;;5.33;2.73;;;23.90;51.60;;;;;;5051695;28;20442;-81
2023/06/27 06:26:11;;;;;;;8.80;2.13;;;23.90;51.50;;;;;;5051363;28;20512;-80
2023/06/27 06:28:40;;;;;;;5.87;2.50;;;23.90;51.40;;;;;;5050542;28;20465;-80
2023/06/27 06:31:10;;;;;;;5.07;2.73;;;24.00;51.70;;;;;;5047066;28;20471;-81
2023/06/27 06:33:39;;;;;;;4.20;2.40;;;24.00;51.70;;;;;;5051295;28;20549;-79
2023/06/27 06:36:07;;;;;;;7.63;3.07;;;24.10;51.50;;;;;;5051741;28;20465;-79
2023/06/27 06:38:35;;;;;;;7.47;2.80;;;24.20;51.60;;;;;;5052470;28;20475;-80
2023/06/27 06:41:04;;;;;;;9.47;2.23;;;24.30;51.50;;;;;;5055470;28;20493;-79
2023/06/27 06:43:32;;;;;;;7.40;2.53;;;24.30;51.50;;;;;;5051690;28;20533;-79
2023/06/27 06:46:00;;;;;;;7.40;2.30;;;24.30;51.40;;;;;;5051513;28;20508;-80
2023/06/27 06:48:30;;;;;;;7.03;3.03;;;24.30;51.60;;;;;;5050133;28;20459;-80
2023/06/27 06:50:58;;;;;;;5.10;3.10;;;24.40;51.50;;;;;;5050599;28;20447;-80
2023/06/27 06:53:26;;;;;;;6.47;2.40;;;24.40;51.50;;;;;;5044069;28;20478;-83
2023/06/27 06:55:55;;;;;;;12.13;2.97;;;24.50;51.40;;;;;;5046405;28;20466;-80
2023/06/27 06:58:23;;;;;;;11.60;3.03;;;24.60;51.50;;;;;;5051474;28;20513;-81
2023/06/27 07:00:51;;;;;;;9.47;2.57;;;24.50;51.60;;;;;;5051478;28;20490;-80
2023/06/27 07:03:20;;;;;;;10.77;3.07;;;24.60;51.40;;;;;;5045950;28;20451;-79
2023/06/27 07:05:50;;;;;;;3.97;2.63;;;24.60;51.30;;;;;;5050867;28;20553;-78
2023/06/27 07:08:18;;;;;;;7.70;2.80;;;24.60;51.30;;;;;;5045308;28;20439;-79
2023/06/27 07:10:46;;;;;;;7.20;2.23;;;24.70;51.30;;;;;;5055509;28;20541;-79
2023/06/27 07:13:14;;;;;;;8.40;2.47;;;24.80;50.90;;;;;;5047624;28;20438;-79
2023/06/27 07:15:42;;;;;;;5.47;2.87;;;24.90;50.80;;;;;;5058969;28;20466;-79
2023/06/27 07:18:11;;;;;;;5.80;2.90;;;25.00;50.60;;;;;;5059273;28;20537;-79
2023/06/27 07:20:39;;;;;;;12.67;2.67;;;25.10;50.40;;;;;;5058256;28;20538;-78
2023/06/27 07:23:09;;;;;;;9.10;2.77;;;25.10;50.00;;;;;;5055242;28;20876;-79
2023/06/27 07:25:38;;;;;;;6.87;2.17;;;25.10;50.00;;;;;;5048443;28;20986;-78
2023/06/27 07:28:07;;;;;;;4.80;1.90;;;25.20;49.60;;;;;;5062830;28;20513;-78
2023/06/27 07:30:35;;;;;;;4.97;1.90;;;25.20;49.10;;;;;;5048284;28;20462;-78
2023/06/27 07:33:03;;;;;;;6.43;1.80;;;25.30;49.00;;;;;;5056563;28;20994;-78
2023/06/27 07:35:31;;;;;;;4.70;2.10;;;25.30;48.40;;;;;;5056704;28;20525;-79
2023/06/27 07:38:00;;;;;;;3.93;1.60;;;25.40;48.60;;;;;;5066643;28;20479;-78
2023/06/27 07:40:30;;;;;;;6.00;1.67;;;25.60;48.40;;;;;;5061696;28;20448;-79
2023/06/27 07:42:58;;;;;;;4.80;1.73;;;25.60;47.70;;;;;;5061825;28;20537;-77
2023/06/27 07:45:27;;;;;;;5.90;2.23;;;25.70;47.50;;;;;;5068251;28;20555;-78
2023/06/27 07:47:55;;;;;;;10.10;1.80;;;25.80;47.30;;;;;;5056313;28;20452;-78
2023/06/27 07:50:23;;;;;;;10.67;2.03;;;25.90;47.00;;;;;;5056303;28;20417;-79
2023/06/27 07:52:52;;;;;;;4.87;1.60;;;25.90;46.40;;;;;;5063950;28;20470;-80
2023/06/27 07:55:20;;;;;;;4.00;1.63;;;25.90;46.30;;;;;;5052374;28;20503;-78
2023/06/27 07:57:56;;;;;;;7.03;1.80;;;26.00;46.30;;;;;;5061361;28;20437;-79
2023/06/27 08:00:25;;;;;;;7.10;1.70;;;26.10;45.90;;;;;;5057689;28;20433;-82
2023/06/27 08:02:53;;;;;;;6.00;1.83;;;26.10;45.60;;;;;;5061659;28;20424;-79
2023/06/27 08:05:22;;;;;;;7.30;1.80;;;26.10;45.70;;;;;;5057152;28;20490;-79
2023/06/27 08:07:50;;;;;;;2.80;1.77;;;26.10;45.80;;;;;;5077796;28;20397;-81
2023/06/27 08:10:19;;;;;;;11.73;2.07;;;26.10;45.70;;;;;;5077521;28;20434;-80
2023/06/27 08:12:53;;;;;;;5.80;1.63;;;26.10;45.60;;;;;;5075699;28;20441;-80
2023/06/27 08:15:23;;;;;;;3.73;1.60;;;26.10;45.50;;;;;;5084084;28;20463;-80
2023/06/27 08:17:52;;;;;;;3.87;1.63;;;26.20;45.20;;;;;;5081183;28;20400;-78
2023/06/27 08:20:20;;;;;;;4.27;2.00;;;26.40;45.10;;;;;;5076729;28;20423;-82
2023/06/27 08:22:50;;;;;;;6.83;1.73;;;26.50;44.90;;;;;;5067055;28;20433;-78
2023/06/27 08:25:18;;;;;;;5.67;1.80;;;26.50;44.60;;;;;;5065088;28;20467;-78
2023/06/27 08:27:46;;;;;;;5.43;2.10;;;26.60;44.40;;;;;;5055202;28;20421;-80
2023/06/27 08:30:16;;;;;;;5.63;2.30;;;26.50;44.10;;;;;;5057091;28;20452;-80
2023/06/27 08:32:44;;;;;;;5.17;2.50;;;26.50;44.20;;;;;;5056186;28;20420;-78
2023/06/27 08:35:12;;;;;;;7.57;2.33;;;26.50;44.20;;;;;;5062803;28;20465;-80
2023/06/27 08:37:41;;;;;;;4.63;2.20;;;26.60;44.30;;;;;;5058744;28;20435;-79
2023/06/27 08:40:10;;;;;;;3.43;2.77;;;26.70;44.50;;;;;;5054325;28;20451;-79
2023/06/27 08:42:39;;;;;;;4.30;2.70;;;26.70;44.70;;;;;;5047052;28;20504;-80
2023/06/27 08:45:08;;;;;;;11.33;2.83;;;26.80;45.10;;;;;;5054856;28;20440;-80
2023/06/27 08:47:37;;;;;;;3.27;1.80;;;26.80;45.30;;;;;;5046745;28;20508;-79
2023/06/27 08:50:08;;;;;;;2.83;1.90;;;27.00;45.40;;;;;;5061712;28;20963;-79
2023/06/27 08:52:38;;;;;;;6.30;2.07;;;27.00;45.00;;;;;;5061391;28;20405;-80
2023/06/27 08:55:08;;;;;;;2.70;1.80;;;26.90;44.90;;;;;;5055479;28;20850;-80
2023/06/27 08:57:36;;;;;;;7.07;1.70;;;26.70;45.50;;;;;;5049777;28;20461;-79
2023/06/27 09:00:11;;;;;;;8.70;1.90;;;26.60;47.00;;;;;;5065907;28;20447;-80
2023/06/27 09:02:49;;;;;;;4.23;1.93;;;26.50;48.20;;;;;;5057031;28;20797;-78
2023/06/27 09:05:17;;;;;;;6.13;2.60;;;26.60;48.80;;;;;;5055235;28;20483;-79
2023/06/27 09:07:45;;;;;;;3.87;1.93;;;26.60;49.20;;;;;;5057551;28;20432;-80
2023/06/27 09:10:13;;;;;;;4.60;2.17;;;26.60;49.80;;;;;;5063456;28;20940;-81
2023/06/27 09:12:41;;;;;;;7.17;1.87;;;26.80;50.30;;;;;;5053756;28;20447;-80
2023/06/27 09:15:11;;;;;;;3.63;1.57;;;27.00;50.40;;;;;;5052314;28;20887;-80
2023/06/27 09:17:39;;;;;;;4.03;1.80;;;27.10;50.50;;;;;;5046030;28;20475;-80
2023/06/27 09:20:10;;;;;;;3.73;1.87;;;27.30;50.30;;;;;;5060772;28;20442;-80
2023/06/27 09:22:39;;;;;;;4.70;1.77;;;27.40;50.10;;;;;;5043719;28;20470;-78
2023/06/27 09:25:10;;;;;;;7.07;1.70;;;27.20;49.90;;;;;;5052276;28;20534;-79
2023/06/27 09:27:39;;;;;;;12.20;1.67;;;27.00;49.80;;;;;;5052676;28;20417;-78
2023/06/27 09:30:08;;;;;;;5.30;1.80;;;27.00;49.70;;;;;;5053186;28;20425;-79
2023/06/27 09:32:37;;;;;;;3.13;1.53;;;26.90;49.40;;;;;;5047556;28;20443;-79
2023/06/27 09:35:06;;;;;;;11.20;2.17;;;27.00;49.30;;;;;;5053214;28;20465;-78
2023/06/27 09:37:36;;;;;;;5.67;1.97;;;27.00;49.50;;;;;;5052895;28;20432;-82
2023/06/27 09:40:17;;;;;;;5.20;1.87;;;27.20;49.40;;;;;;5053966;28;20459;-80
2023/06/27 09:42:50;;;;;;;3.93;1.87;;;27.50;49.10;;;;;;5052047;28;20466;-77
2023/06/27 09:45:21;;;;;;;5.23;2.13;;;27.60;48.60;;;;;;5059910;28;20431;-78
2023/06/27 09:47:50;;;;;;;4.10;1.60;;;27.70;48.10;;;;;;5052775;28;20425;-79
2023/06/27 09:50:18;;;;;;;4.27;2.00;;;27.80;47.90;;;;;;5049913;28;20513;-79
2023/06/27 09:52:52;;;;;;;4.67;2.23;;;28.00;47.40;;;;;;5057905;28;20443;-79
2023/06/27 09:55:38;;;;;;;5.33;2.23;;;28.10;47.20;;;;;;5053026;28;20440;-81
2023/06/27 09:58:07;;;;;;;5.23;2.80;;;28.20;46.90;;;;;;5059701;28;20416;-79
2023/06/27 10:00:35;;;;;;;5.83;3.33;;;28.40;46.30;;;;;;5054300;28;20445;-80
2023/06/27 10:03:03;;;;;;;6.27;2.27;;;28.50;46.00;;;;;;5059790;28;20496;-77
2023/06/27 10:05:35;;;;;;;7.53;1.93;;;28.60;44.40;;;;;;5062602;28;20470;-80
2023/06/27 10:08:10;;;;;;;6.30;2.40;;;28.60;43.10;;;;;;5051591;28;20433;-78
2023/06/27 10:10:41;;;;;;;2.77;2.10;;;28.70;42.70;;;;;;5060761;28;20410;-78
2023/06/27 10:13:11;;;;;;;4.23;1.83;;;28.90;42.40;;;;;;5054042;28;20435;-79
2023/06/27 10:15:40;;;;;;;2.97;1.90;;;29.00;41.70;;;;;;5056302;28;20470;-79
2023/06/27 10:18:08;;;;;;;6.60;1.87;;;29.10;41.80;;;;;;5056244;28;20436;-79
2023/06/27 10:20:39;;;;;;;4.67;2.10;;;29.20;41.20;;;;;;5047359;28;20496;-78
2023/06/27 10:23:07;;;;;;;6.50;2.70;;;29.20;40.90;;;;;;5056918;28;20474;-78
2023/06/27 10:25:38;;;;;;;8.60;1.90;;;29.20;40.70;;;;;;5044280;28;20448;-77
2023/06/27 10:28:08;;;;;;;2.70;2.23;;;29.00;39.60;;;;;;5052027;28;20479;-80
2023/06/27 10:30:43;;;;;;;5.43;1.80;;;28.90;39.90;;;;;;5052878;28;20425;-79
2023/06/27 10:33:20;;;;;;;4.00;1.50;;;28.70;40.00;;;;;;5060135;28;20491;-79
2023/06/27 10:35:53;;;;;;;6.17;1.40;;;28.60;40.70;;;;;;5053058;28;20480;-79
2023/06/27 10:38:22;;;;;;;5.70;1.80;;;28.80;40.70;;;;;;5060028;28;20857;-80
2023/06/27 10:41:13;;;;;;;4.93;1.30;;;29.00;40.60;;;;;;5052799;28;20432;-81
2023/06/27 10:43:49;;;;;;;5.60;1.33;;;29.10;40.30;;;;;;5049138;28;20462;-79
2023/06/27 10:46:18;;;;;;;2.70;1.10;;;29.20;40.00;;;;;;5055821;28;20431;-81
2023/06/27 10:48:48;;;;;;;5.93;1.37;;;29.10;39.50;;;;;;5052454;28;20490;-79
2023/06/27 10:51:18;;;;;;;6.77;2.00;;;29.00;39.40;;;;;;5052384;28;20413;-79
2023/06/27 10:54:12;;;;;;;4.43;2.10;;;29.10;39.50;;;;;;5052542;28;20439;-79
2023/06/27 10:56:42;;;;;;;2.77;2.00;;;29.10;39.60;;;;;;5063096;28;20426;-79
2023/06/27 10:59:12;;;;;;;2.80;2.60;;;29.40;39.20;;;;;;5052591;28;20496;-79
2023/06/27 11:01:44;;;;;;;5.73;3.20;;;29.50;39.40;;;;;;5056212;28;20466;-77
2023/06/27 11:04:19;;;;;;;4.17;2.47;;;29.70;39.00;;;;;;5050297;28;20989;-78
2023/06/27 11:06:48;;;;;;;3.03;2.07;;;29.80;38.50;;;;;;5053669;28;20495;-78
2023/06/27 11:09:17;;;;;;;5.13;1.60;;;29.90;38.20;;;;;;5053229;28;21010;-79
2023/06/27 11:11:56;;;;;;;3.53;1.70;;;30.00;37.80;;;;;;5050825;28;20495;-79
2023/06/27 11:14:34;;;;;;;4.90;2.30;;;30.10;37.90;;;;;;5054311;28;20461;-79
2023/06/27 11:17:03;;;;;;;3.40;1.90;;;30.20;37.60;;;;;;5060337;28;20412;-80
2023/06/27 11:19:32;;;;;;;6.40;2.80;;;30.30;37.40;;;;;;5050343;28;20525;-80
2023/06/27 11:22:00;;;;;;;4.97;2.93;;;30.10;37.80;;;;;;5058306;28;20421;-79
2023/06/27 11:24:30;;;;;;;6.27;2.43;;;30.10;37.60;;;;;;5052376;28;20461;-79
2023/06/27 11:27:00;;;;;;;2.30;2.10;;;30.10;37.60;;;;;;5054664;28;20446;-80
2023/06/27 11:29:27;;;;;;;5.80;2.10;;;30.20;37.40;;;;;;5053471;28;20471;-79
2023/06/27 11:31:56;;;;;;;3.70;2.27;;;30.20;37.50;;;;;;5058395;28;20445;-79
2023/06/27 11:34:24;;;;;;;8.63;2.13;;;30.10;37.90;;;;;;5054512;28;20455;-80
2023/06/27 11:36:54;;;;;;;2.20;1.80;;;30.30;37.50;;;;;;5047387;28;20510;-79
2023/06/27 11:39:23;;;;;;;4.90;2.33;;;30.50;37.30;;;;;;5060824;28;20502;-80
2023/06/27 11:41:53;;;;;;;4.10;1.90;;;30.50;36.60;;;;;;5052866;28;20950;-80
2023/06/27 11:44:30;;;;;;;4.40;1.70;;;30.60;36.40;;;;;;5062340;28;20466;-81
2023/06/27 11:46:58;;;;;;;9.10;1.60;;;30.70;36.40;;;;;;5064063;28;20415;-81
2023/06/27 11:49:27;;;;;;;2.00;1.40;;;30.80;36.10;;;;;;5065061;28;20447;-80
2023/06/27 11:51:59;;;;;;;6.43;1.33;;;30.90;35.80;;;;;;5057341;28;20421;-81
2023/06/27 11:54:28;;;;;;;4.40;1.50;;;30.70;36.20;;;;;;5055155;28;20508;-81
2023/06/27 11:56:59;;;;;;;5.00;1.40;;;30.80;35.60;;;;;;5057193;28;20452;-80
2023/06/27 11:59:32;;;;;;;2.47;1.97;;;30.90;35.10;;;;;;5057580;28;20475;-79
2023/06/27 12:02:01;;;;;;;2.63;1.47;;;30.90;35.20;;;;;;5062689;28;20514;-79
2023/06/27 12:04:29;;;;;;;2.43;1.60;;;31.00;35.10;;;;;;5056392;28;20478;-83
2023/06/27 12:07:25;;;;;;;1.53;0.90;;;31.00;34.80;;;;;;5063245;28;20882;-84
2023/06/27 12:10:04;;;;;;;1.20;1.03;;;30.70;34.30;;;;;;5065798;28;20430;-84
2023/06/27 12:12:37;;;;;;;1.10;0.90;;;30.80;34.90;;;;;;5074006;28;20429;-84
2023/06/27 12:15:14;;;;;;;2.20;1.10;;;30.90;34.80;;;;;;5074163;28;20417;-83
2023/06/27 12:17:55;;;;;;;5.20;1.47;;;30.90;34.90;;;;;;5057572;28;20413;-83
2023/06/27 12:20:24;;;;;;;1.37;1.27;;;30.80;35.50;;;;;;5057503;28;20444;-83
2023/06/27 12:22:52;;;;;;;2.30;1.00;;;31.00;35.40;;;;;;5056368;28;20409;-83
2023/06/27 12:25:20;;;;;;;1.00;0.90;;;31.00;35.00;;;;;;5063218;28;20441;-83
2023/06/27 12:27:48;;;;;;;1.90;1.10;;;30.90;36.10;;;;;;5055655;28;20464;-83
2023/06/27 12:30:18;;;;;;;2.57;1.10;;;31.00;35.50;;;;;;5060037;28;20468;-84
2023/06/27 12:32:46;;;;;;;1.77;0.90;;;31.00;35.60;;;;;;5055819;28;20452;-82
2023/06/27 12:35:17;;;;;;;1.43;0.80;;;31.20;35.20;;;;;;5056535;28;20482;-84
2023/06/27 12:37:46;;;;;;;1.93;0.80;;;31.20;34.30;;;;;;5063082;28;20537;-82
2023/06/27 12:40:15;;;;;;;2.63;1.00;;;31.20;34.20;;;;;;5057277;28;20487;-83
2023/06/27 12:42:46;;;;;;;1.40;0.90;;;31.20;34.60;;;;;;5062834;28;20450;-84
2023/06/27 12:45:14;;;;;;;4.67;0.90;;;31.30;34.40;;;;;;5056029;28;20479;-83
2023/06/27 12:47:44;;;;;;;4.87;0.83;;;31.30;34.60;;;;;;5060031;28;20432;-84
2023/06/27 12:50:12;;;;;;;2.87;1.00;;;31.50;33.50;;;;;;5059780;28;20452;-83
2023/06/27 12:52:40;;;;;;;1.57;0.93;;;31.50;33.20;;;;;;5054744;28;20537;-82
2023/06/27 12:55:08;;;;;;;6.00;0.90;;;31.20;33.90;;;;;;5056692;28;20471;-83
2023/06/27 12:57:36;;;;;;;2.67;0.87;;;31.20;34.70;;;;;;5054668;28;20474;-83